Time;durP1;ratioP1;P1;durP2;ratioP2;P2;SDS_P1;SDS_P2;PMS_P1;PMS_P2;Temp;Humidity;BMP_temperature;BMP_pressure;BME280_temperature;BME280_humidity;BME280_pressure;Samples;Min_cycle;Max_cycle;Signal;HPM_P1;HPM_P2
2022/10/31 00:02:38;;;;;;;66.95;37.35;;;;;;;;;;6171904;28;20262;-74
2022/10/31 00:05:42;;;;;;;98.27;51.70;;;;;;;;;;6166786;28;20116;-74
2022/10/31 00:08:43;;;;;;;101.97;56.38;;;;;;;;;;6170154;28;20019;-74
2022/10/31 00:11:43;;;;;;;112.82;62.50;;;;;;;;;;6171055;28;20018;-74
2022/10/31 00:14:43;;;;;;;125.82;65.60;;;;;;;;;;6171574;28;20027;-74
2022/10/31 00:17:43;;;;;;;130.15;70.93;;;;;;;;;;6176609;28;20065;-75
2022/10/31 00:20:44;;;;;;;120.43;69.30;;;;;;;;;;6175921;28;20038;-75
2022/10/31 00:23:44;;;;;;;109.87;62.00;;;;;;;;;;6175079;28;20774;-75
2022/10/31 00:26:44;;;;;;;95.47;54.87;;;;;;;;;;6169059;28;20320;-74
2022/10/31 00:29:44;;;;;;;110.33;58.30;;;;;;;;;;6158881;28;20767;-74
2022/10/31 00:32:44;;;;;;;97.75;56.70;;;;;;;;;;6154492;28;20750;-75
2022/10/31 00:35:50;;;;;;;95.57;54.47;;;;;;;;;;6172297;28;20023;-75
2022/10/31 00:38:51;;;;;;;87.97;50.53;;;;;;;;;;6175519;28;20023;-75
2022/10/31 00:41:51;;;;;;;96.63;55.70;;;;;;;;;;6156508;28;20141;-75
2022/10/31 00:44:51;;;;;;;92.57;51.37;;;;;;;;;;6175855;28;20078;-75
2022/10/31 00:47:51;;;;;;;94.35;55.50;;;;;;;;;;6179085;28;20023;-75
2022/10/31 00:50:51;;;;;;;84.40;44.27;;;;;;;;;;6177353;28;20033;-75
2022/10/31 00:53:51;;;;;;;79.13;43.28;;;;;;;;;;6158905;28;20038;-76
2022/10/31 00:56:52;;;;;;;72.25;38.70;;;;;;;;;;6158247;28;20029;-76
2022/10/31 00:59:52;;;;;;;61.30;32.60;;;;;;;;;;6159004;28;20344;-75
2022/10/31 01:02:52;;;;;;;52.05;27.38;;;;;;;;;;6174611;28;20357;-75
2022/10/31 01:06:00;;;;;;;56.05;30.25;;;;;;;;;;6168495;28;20047;-74
2022/10/31 01:09:00;;;;;;;51.08;30.40;;;;;;;;;;6176410;28;20317;-75
2022/10/31 01:12:00;;;;;;;49.60;28.38;;;;;;;;;;6176773;28;20058;-75
2022/10/31 01:15:00;;;;;;;57.33;33.70;;;;;;;;;;6174982;28;20026;-75
2022/10/31 01:18:00;;;;;;;51.70;28.43;;;;;;;;;;6173367;28;20053;-74
2022/10/31 01:21:05;;;;;;;50.45;28.50;;;;;;;;;;6175722;28;20313;-75
2022/10/31 01:24:05;;;;;;;52.72;30.00;;;;;;;;;;6175143;28;20031;-75
2022/10/31 01:27:06;;;;;;;66.68;34.67;;;;;;;;;;6157469;28;20116;-75
2022/10/31 01:30:06;;;;;;;61.70;27.90;;;;;;;;;;6158144;28;20034;-75
2022/10/31 01:33:06;;;;;;;61.10;28.77;;;;;;;;;;6174068;28;20336;-75
2022/10/31 01:36:17;;;;;;;58.05;27.08;;;;;;;;;;6174676;28;20113;-75
2022/10/31 01:39:19;;;;;;;52.15;28.63;;;;;;;;;;6174405;28;20258;-75
2022/10/31 01:42:21;;;;;;;52.70;28.50;;;;;;;;;;6171391;28;20019;-75
2022/10/31 01:45:21;;;;;;;61.05;33.28;;;;;;;;;;6171004;28;20027;-75
2022/10/31 01:48:24;;;;;;;79.53;41.90;;;;;;;;;;6151979;28;20034;-75
2022/10/31 01:51:27;;;;;;;76.13;36.70;;;;;;;;;;6163451;28;20027;-75
2022/10/31 01:54:30;;;;;;;65.90;32.67;;;;;;;;;;6173446;28;20376;-75
2022/10/31 01:57:32;;;;;;;54.47;29.63;;;;;;;;;;6175818;28;20077;-75
2022/10/31 02:00:32;;;;;;;52.28;28.70;;;;;;;;;;6157000;28;20093;-75
2022/10/31 02:03:32;;;;;;;57.97;31.33;;;;;;;;;;6171025;28;20070;-75
2022/10/31 02:06:36;;;;;;;60.53;27.88;;;;;;;;;;6174998;28;20121;-75
2022/10/31 02:09:37;;;;;;;47.97;27.58;;;;;;;;;;6156796;28;20031;-75
2022/10/31 02:12:38;;;;;;;53.45;28.23;;;;;;;;;;6171942;28;20028;-75
2022/10/31 02:15:39;;;;;;;54.10;28.25;;;;;;;;;;6174641;28;20023;-75
2022/10/31 02:18:39;;;;;;;58.03;30.37;;;;;;;;;;6174355;28;20027;-75
2022/10/31 02:21:39;;;;;;;52.07;28.03;;;;;;;;;;6173728;28;20022;-75
2022/10/31 02:25:08;;;;;;;57.50;29.33;;;;;;;;;;6172129;28;20697;-74
2022/10/31 02:28:17;;;;;;;58.35;27.10;;;;;;;;;;6138253;28;20049;-74
2022/10/31 02:31:17;;;;;;;61.30;32.53;;;;;;;;;;6156302;28;20135;-75
2022/10/31 02:34:22;;;;;;;62.35;33.60;;;;;;;;;;6172005;28;20026;-75
2022/10/31 02:37:31;;;;;;;57.70;32.38;;;;;;;;;;6171166;28;20516;-75
2022/10/31 02:40:36;;;;;;;59.65;33.45;;;;;;;;;;6172147;28;20054;-75
2022/10/31 02:43:42;;;;;;;63.00;33.10;;;;;;;;;;6171091;28;20033;-75
2022/10/31 02:46:54;;;;;;;57.78;28.95;;;;;;;;;;6167147;28;20049;-76
2022/10/31 02:50:01;;;;;;;46.20;25.55;;;;;;;;;;6174494;28;20439;-75
2022/10/31 02:53:02;;;;;;;47.35;26.27;;;;;;;;;;6156259;28;20387;-76
2022/10/31 02:56:05;;;;;;;38.75;22.83;;;;;;;;;;6172583;28;20037;-75
2022/10/31 02:59:05;;;;;;;44.35;23.48;;;;;;;;;;6156372;28;20030;-75
2022/10/31 03:02:24;;;;;;;41.77;24.50;;;;;;;;;;6173256;28;20030;-76
2022/10/31 03:05:30;;;;;;;45.05;25.08;;;;;;;;;;6170025;28;20302;-75
2022/10/31 03:08:50;;;;;;;79.43;36.85;;;;;;;;;;6171661;28;20403;-75
2022/10/31 03:11:58;;;;;;;87.05;38.70;;;;;;;;;;6154300;28;20021;-75
2022/10/31 03:15:19;;;;;;;72.93;33.65;;;;;;;;;;6153159;28;20081;-75
2022/10/31 03:18:22;;;;;;;57.25;28.42;;;;;;;;;;6173923;28;20023;-75
2022/10/31 03:21:24;;;;;;;56.80;29.67;;;;;;;;;;6156320;28;20382;-76
2022/10/31 03:24:27;;;;;;;54.90;28.95;;;;;;;;;;6168289;28;20070;-75
2022/10/31 03:27:29;;;;;;;62.92;29.10;;;;;;;;;;6169763;28;20073;-76
2022/10/31 03:30:31;;;;;;;61.72;30.20;;;;;;;;;;6171275;28;20019;-75
2022/10/31 03:33:32;;;;;;;52.85;29.77;;;;;;;;;;6163292;28;20074;-75
2022/10/31 03:36:34;;;;;;;59.80;28.50;;;;;;;;;;6156377;28;20462;-75
2022/10/31 03:39:34;;;;;;;60.45;31.38;;;;;;;;;;6152110;28;20487;-76
2022/10/31 03:42:37;;;;;;;59.63;29.73;;;;;;;;;;6166076;28;20057;-75
2022/10/31 03:45:40;;;;;;;56.20;29.75;;;;;;;;;;6169608;28;20117;-75
2022/10/31 03:48:40;;;;;;;53.50;26.52;;;;;;;;;;6169314;28;20019;-75
2022/10/31 03:51:50;;;;;;;57.55;28.08;;;;;;;;;;6171139;28;20018;-75
2022/10/31 03:54:53;;;;;;;49.45;26.08;;;;;;;;;;6173487;28;20023;-75
2022/10/31 03:58:11;;;;;;;52.83;27.55;;;;;;;;;;6177437;28;20429;-75
2022/10/31 04:01:13;;;;;;;55.38;28.80;;;;;;;;;;6165561;28;20034;-75
2022/10/31 04:04:14;;;;;;;68.00;31.48;;;;;;;;;;6157060;28;20495;-75
2022/10/31 04:07:15;;;;;;;74.90;36.10;;;;;;;;;;6165463;28;20055;-75
2022/10/31 04:10:16;;;;;;;69.47;35.78;;;;;;;;;;6175184;28;20782;-75
2022/10/31 04:13:27;;;;;;;64.05;29.42;;;;;;;;;;6152936;28;20019;-75
2022/10/31 04:16:27;;;;;;;60.15;30.30;;;;;;;;;;6161463;28;20023;-75
2022/10/31 04:19:28;;;;;;;53.95;25.13;;;;;;;;;;6168109;28;20034;-75
2022/10/31 04:22:28;;;;;;;52.08;25.77;;;;;;;;;;6158042;28;20030;-75
2022/10/31 04:25:28;;;;;;;48.97;24.63;;;;;;;;;;6169416;28;20298;-75
2022/10/31 04:28:28;;;;;;;54.20;27.25;;;;;;;;;;6176721;28;20035;-75
2022/10/31 04:31:29;;;;;;;72.33;33.87;;;;;;;;;;6175755;28;20019;-75
2022/10/31 04:34:29;;;;;;;78.57;33.97;;;;;;;;;;6173366;28;20254;-75
2022/10/31 04:37:29;;;;;;;81.12;32.52;;;;;;;;;;6156388;28;20046;-75
2022/10/31 04:40:30;;;;;;;77.90;31.77;;;;;;;;;;6172717;28;20019;-75
2022/10/31 04:43:30;;;;;;;65.25;29.95;;;;;;;;;;6176283;28;20286;-75
2022/10/31 04:46:30;;;;;;;64.50;30.20;;;;;;;;;;6174356;28;20015;-75
2022/10/31 04:49:30;;;;;;;63.50;28.42;;;;;;;;;;6175130;28;20289;-75
2022/10/31 04:52:31;;;;;;;82.50;31.67;;;;;;;;;;6170320;28;20093;-76
2022/10/31 04:55:31;;;;;;;73.03;28.85;;;;;;;;;;6170945;28;20018;-75
2022/10/31 04:58:31;;;;;;;78.10;26.33;;;;;;;;;;6168895;28;20565;-75
2022/10/31 05:01:31;;;;;;;62.50;26.90;;;;;;;;;;6172998;28;20023;-75
2022/10/31 05:04:31;;;;;;;62.47;26.00;;;;;;;;;;6169318;28;20031;-75
2022/10/31 05:07:31;;;;;;;49.13;26.85;;;;;;;;;;6172580;28;20282;-76
2022/10/31 05:10:32;;;;;;;56.95;25.92;;;;;;;;;;6152760;28;20011;-76
2022/10/31 05:13:32;;;;;;;64.53;30.90;;;;;;;;;;6168451;28;20262;-76
2022/10/31 05:16:32;;;;;;;58.83;27.98;;;;;;;;;;6172011;28;20274;-75
2022/10/31 05:19:32;;;;;;;74.75;30.85;;;;;;;;;;6173753;28;20078;-75
2022/10/31 05:22:32;;;;;;;66.38;29.92;;;;;;;;;;6158391;28;20809;-76
2022/10/31 05:25:33;;;;;;;69.72;28.98;;;;;;;;;;6173969;28;20278;-76
2022/10/31 05:28:33;;;;;;;61.97;27.90;;;;;;;;;;6172904;28;20022;-76
2022/10/31 05:31:33;;;;;;;55.03;27.00;;;;;;;;;;6173653;28;20019;-76
2022/10/31 05:34:33;;;;;;;64.38;30.38;;;;;;;;;;6174435;28;20025;-76
2022/10/31 05:37:34;;;;;;;65.57;30.63;;;;;;;;;;6174012;28;20140;-76
2022/10/31 05:40:34;;;;;;;57.97;29.73;;;;;;;;;;6173813;28;20277;-75
2022/10/31 05:43:35;;;;;;;51.85;26.42;;;;;;;;;;6166478;28;20022;-76
2022/10/31 05:46:35;;;;;;;46.97;25.83;;;;;;;;;;6154873;28;20341;-76
2022/10/31 05:49:35;;;;;;;41.83;23.27;;;;;;;;;;6170067;28;20380;-75
2022/10/31 05:52:35;;;;;;;50.90;22.77;;;;;;;;;;6175285;28;20272;-76
2022/10/31 05:55:36;;;;;;;45.65;20.23;;;;;;;;;;6173264;28;20023;-75
2022/10/31 05:58:36;;;;;;;46.63;22.33;;;;;;;;;;6173718;28;20015;-75
2022/10/31 06:01:36;;;;;;;39.42;20.24;;;;;;;;;;6173981;28;20054;-75
2022/10/31 06:04:36;;;;;;;43.15;21.98;;;;;;;;;;6154189;28;20399;-75
2022/10/31 06:07:36;;;;;;;40.88;20.38;;;;;;;;;;6156917;28;20125;-75
2022/10/31 06:10:37;;;;;;;40.42;21.33;;;;;;;;;;6164104;28;20011;-75
2022/10/31 06:13:37;;;;;;;37.80;19.07;;;;;;;;;;6159461;28;20353;-75
2022/10/31 06:16:37;;;;;;;40.67;22.23;;;;;;;;;;6158993;28;20368;-75
2022/10/31 06:19:37;;;;;;;42.50;23.85;;;;;;;;;;6151678;28;20038;-75
2022/10/31 06:22:37;;;;;;;40.50;24.90;;;;;;;;;;6164011;28;20437;-75
2022/10/31 06:25:38;;;;;;;47.73;24.57;;;;;;;;;;6163718;28;20023;-75
2022/10/31 06:28:38;;;;;;;37.67;21.30;;;;;;;;;;6149933;28;20082;-75
2022/10/31 06:31:38;;;;;;;44.20;22.10;;;;;;;;;;6157719;28;20027;-76
2022/10/31 06:34:38;;;;;;;49.03;28.42;;;;;;;;;;6147582;28;20023;-75
2022/10/31 06:37:39;;;;;;;48.30;29.35;;;;;;;;;;6155815;28;20408;-76
2022/10/31 06:40:39;;;;;;;78.65;30.25;;;;;;;;;;6165411;28;20027;-75
2022/10/31 06:43:39;;;;;;;62.63;27.50;;;;;;;;;;6157369;28;20031;-75
2022/10/31 06:46:39;;;;;;;58.40;25.35;;;;;;;;;;6165073;28;20018;-76
2022/10/31 06:49:39;;;;;;;43.13;22.92;;;;;;;;;;6165385;28;20106;-76
2022/10/31 06:52:39;;;;;;;41.72;22.63;;;;;;;;;;6177641;28;20023;-76
2022/10/31 06:55:40;;;;;;;37.15;20.08;;;;;;;;;;6175981;28;20494;-76
2022/10/31 06:58:40;;;;;;;34.43;20.13;;;;;;;;;;6171387;28;20038;-76
2022/10/31 07:01:40;;;;;;;35.93;17.70;;;;;;;;;;6162774;28;20030;-75
2022/10/31 07:04:41;;;;;;;32.43;20.13;;;;;;;;;;6164311;28;20046;-75
2022/10/31 07:07:41;;;;;;;31.77;15.97;;;;;;;;;;6167964;28;20038;-75
2022/10/31 07:10:42;;;;;;;29.73;16.95;;;;;;;;;;6165875;28;20019;-76
2022/10/31 07:13:42;;;;;;;32.60;18.63;;;;;;;;;;6167274;28;20383;-75
2022/10/31 07:16:42;;;;;;;28.17;17.60;;;;;;;;;;6173760;28;20102;-75
2022/10/31 07:19:42;;;;;;;30.08;17.67;;;;;;;;;;6174598;28;20066;-75
2022/10/31 07:22:42;;;;;;;31.23;18.20;;;;;;;;;;6170882;28;20388;-75
2022/10/31 07:25:43;;;;;;;28.77;15.80;;;;;;;;;;6169365;28;20499;-75
2022/10/31 07:28:43;;;;;;;36.67;20.57;;;;;;;;;;6163169;28;20427;-75
2022/10/31 07:31:45;;;;;;;28.23;16.87;;;;;;;;;;6165517;28;20499;-75
2022/10/31 07:34:45;;;;;;;;;;;;;;;;;;6172109;28;20509;-75
2022/10/31 07:37:45;;;;;;;24.33;16.77;;;;;;;;;;6168071;28;20001;-75
2022/10/31 07:40:49;;;;;;;32.13;18.40;;;;;;;;;;6172147;28;20022;-76
2022/10/31 07:43:49;;;;;;;27.92;18.55;;;;;;;;;;6170841;28;20109;-74
2022/10/31 07:46:49;;;;;;;29.05;18.90;;;;;;;;;;6169724;28;20026;-74
2022/10/31 07:49:50;;;;;;;28.93;19.03;;;;;;;;;;6171254;28;20025;-74
2022/10/31 07:53:05;;;;;;;30.57;18.97;;;;;;;;;;6152394;28;20031;-75
2022/10/31 07:56:05;;;;;;;28.92;17.25;;;;;;;;;;6156600;28;20029;-75
2022/10/31 07:59:06;;;;;;;29.07;17.73;;;;;;;;;;6167268;28;20098;-76
2022/10/31 08:02:07;;;;;;;33.53;20.65;;;;;;;;;;6174653;28;20017;-76
2022/10/31 08:05:07;;;;;;;30.15;17.35;;;;;;;;;;6168653;28;20099;-76
2022/10/31 08:08:07;;;;;;;29.03;17.70;;;;;;;;;;6171430;28;20055;-76
2022/10/31 08:11:08;;;;;;;27.80;17.00;;;;;;;;;;6171909;28;20039;-76
2022/10/31 08:14:08;;;;;;;29.83;17.63;;;;;;;;;;6171549;28;20467;-76
2022/10/31 08:17:08;;;;;;;28.85;18.88;;;;;;;;;;6177754;28;20031;-76
2022/10/31 08:20:08;;;;;;;27.33;17.10;;;;;;;;;;6160572;28;20023;-76
2022/10/31 08:23:09;;;;;;;23.23;15.63;;;;;;;;;;6159471;28;20018;-76
2022/10/31 08:26:10;;;;;;;25.85;17.15;;;;;;;;;;6170676;28;20023;-76
2022/10/31 08:29:10;;;;;;;22.67;15.80;;;;;;;;;;6162122;28;20023;-75
2022/10/31 08:32:10;;;;;;;25.05;14.40;;;;;;;;;;6172770;28;20050;-76
2022/10/31 08:35:10;;;;;;;24.87;17.27;;;;;;;;;;6173900;28;20034;-76
2022/10/31 08:38:11;;;;;;;27.63;16.57;;;;;;;;;;6174866;28;20113;-76
2022/10/31 08:41:11;;;;;;;26.27;15.60;;;;;;;;;;6173901;28;20023;-75
2022/10/31 08:44:12;;;;;;;25.57;17.37;;;;;;;;;;6164115;28;20027;-75
2022/10/31 08:47:12;;;;;;;24.03;15.80;;;;;;;;;;6166328;28;20114;-75
2022/10/31 08:50:12;;;;;;;21.77;15.57;;;;;;;;;;6162398;28;20027;-76
2022/10/31 08:53:13;;;;;;;25.13;15.07;;;;;;;;;;6177482;28;20098;-73
2022/10/31 08:56:14;;;;;;;23.25;15.40;;;;;;;;;;6179987;28;20023;-74
2022/10/31 08:59:14;;;;;;;30.93;15.77;;;;;;;;;;6172242;28;20014;-75
2022/10/31 09:02:14;;;;;;;28.13;16.52;;;;;;;;;;6156867;28;20043;-75
2022/10/31 09:05:14;;;;;;;22.83;14.77;;;;;;;;;;6153756;28;20516;-75
2022/10/31 09:08:15;;;;;;;24.43;14.90;;;;;;;;;;6164225;28;20058;-74
2022/10/31 09:11:15;;;;;;;24.50;16.33;;;;;;;;;;6164681;28;20513;-75
2022/10/31 09:14:16;;;;;;;23.90;15.80;;;;;;;;;;6175124;28;20054;-76
2022/10/31 09:17:16;;;;;;;25.98;16.33;;;;;;;;;;6170443;28;20411;-74
2022/10/31 09:20:16;;;;;;;31.50;19.45;;;;;;;;;;6165581;28;20026;-74
2022/10/31 09:23:20;;;;;;;25.15;15.68;;;;;;;;;;6157232;28;20554;-75
2022/10/31 09:26:21;;;;;;;26.88;17.95;;;;;;;;;;6168766;28;20019;-74
2022/10/31 09:29:21;;;;;;;25.33;15.30;;;;;;;;;;6158735;28;20387;-76
2022/10/31 09:32:21;;;;;;;23.23;15.37;;;;;;;;;;6152764;28;20487;-75
2022/10/31 09:35:21;;;;;;;24.83;16.30;;;;;;;;;;6162046;28;20022;-75
2022/10/31 09:38:23;;;;;;;26.80;15.20;;;;;;;;;;6159896;28;20023;-75
2022/10/31 09:41:23;;;;;;;27.40;16.85;;;;;;;;;;6147672;28;20062;-75
2022/10/31 09:44:42;;;;;;;22.75;14.65;;;;;;;;;;6161447;28;20038;-75
2022/10/31 09:47:57;;;;;;;27.90;16.98;;;;;;;;;;6171277;28;20105;-75
2022/10/31 09:51:04;;;;;;;25.42;15.00;;;;;;;;;;6151768;28;20031;-76
2022/10/31 09:54:13;;;;;;;26.70;15.30;;;;;;;;;;6171436;28;20424;-76
2022/10/31 09:57:15;;;;;;;24.63;15.05;;;;;;;;;;6170735;28;20030;-75
2022/10/31 10:00:22;;;;;;;27.67;15.25;;;;;;;;;;6275088;28;20398;-73
2022/10/31 10:03:32;;;;;;;30.37;14.80;;;;;;;;;;6265351;28;20489;-73
2022/10/31 10:06:34;;;;;;;31.73;16.98;;;;;;;;;;6276458;28;20031;-74
2022/10/31 10:09:35;;;;;;;33.65;16.73;;;;;;;;;;6265826;28;20052;-75
2022/10/31 10:12:48;;;;;;;26.83;14.57;;;;;;;;;;6269073;28;20139;-74
2022/10/31 10:15:59;;;;;;;25.48;13.18;;;;;;;;;;6262470;28;20102;-74
2022/10/31 10:19:05;;;;;;;21.73;14.60;;;;;;;;;;6273495;28;20021;-74
2022/10/31 10:22:06;;;;;;;26.50;16.70;;;;;;;;;;6267099;28;20025;-74
2022/10/31 10:25:15;;;;;;;31.07;15.53;;;;;;;;;;6265907;28;20442;-75
2022/10/31 10:28:21;;;;;;;29.88;15.20;;;;;;;;;;6260726;28;20393;-74
2022/10/31 10:31:27;;;;;;;21.08;13.05;;;;;;;;;;6268620;28;20036;-74
2022/10/31 10:34:33;;;;;;;22.58;11.82;;;;;;;;;;6265200;28;20036;-73
2022/10/31 10:37:37;;;;;;;23.02;12.43;;;;;;;;;;6267790;28;20048;-74
2022/10/31 10:40:37;;;;;;;24.20;12.50;;;;;;;;;;6258168;28;20025;-74
2022/10/31 10:43:38;;;;;;;21.40;11.32;;;;;;;;;;6269428;28;20021;-74
2022/10/31 10:50:02;;;;;;;17.30;10.35;;;;;;;;;;6271148;28;20037;-75
2022/10/31 10:53:03;;;;;;;;;;;;;;;;;;6270396;28;20448;-75
2022/10/31 10:56:17;;;;;;;21.73;11.10;;;;;;;;;;6265647;28;19905;-74
2022/10/31 10:59:19;;;;;;;18.33;9.52;;;;;;;;;;6264608;28;20053;-76
2022/10/31 11:02:24;;;;;;;15.23;9.32;;;;;;;;;;6274929;28;20027;-75
2022/10/31 11:05:25;;;;;;;21.23;9.75;;;;;;;;;;6277807;28;20095;-75
2022/10/31 11:08:26;;;;;;;18.37;10.53;;;;;;;;;;6276800;28;20078;-75
2022/10/31 11:11:27;;;;;;;20.88;9.98;;;;;;;;;;6256092;28;20036;-76
2022/10/31 11:14:28;;;;;;;19.13;9.82;;;;;;;;;;6249417;28;20036;-75
2022/10/31 11:17:31;;;;;;;16.60;10.47;;;;;;;;;;6254292;28;20053;-75
2022/10/31 11:20:34;;;;;;;16.67;9.30;;;;;;;;;;6239078;28;20474;-75
2022/10/31 11:23:34;;;;;;;23.05;10.00;;;;;;;;;;6245141;28;20052;-75
2022/10/31 11:26:35;;;;;;;18.30;8.77;;;;;;;;;;6260229;28;20050;-75
2022/10/31 11:29:36;;;;;;;21.60;10.98;;;;;;;;;;6248356;28;20104;-75
2022/10/31 11:32:41;;;;;;;24.30;10.20;;;;;;;;;;6264799;28;20029;-75
2022/10/31 11:35:41;;;;;;;17.88;8.75;;;;;;;;;;6243504;28;20035;-75
2022/10/31 11:38:42;;;;;;;14.50;8.65;;;;;;;;;;6252923;28;20025;-75
2022/10/31 11:41:43;;;;;;;21.33;8.73;;;;;;;;;;6242535;28;20532;-75
2022/10/31 11:44:43;;;;;;;22.58;9.82;;;;;;;;;;6244412;28;20033;-75
2022/10/31 11:47:47;;;;;;;20.60;9.70;;;;;;;;;;6245276;28;20025;-75
2022/10/31 11:50:49;;;;;;;21.80;8.95;;;;;;;;;;6237857;28;20057;-75
2022/10/31 11:53:53;;;;;;;18.05;9.48;;;;;;;;;;6240452;28;20115;-75
2022/10/31 11:56:53;;;;;;;20.60;9.18;;;;;;;;;;6248128;28;20100;-76
2022/10/31 11:59:55;;;;;;;19.00;8.80;;;;;;;;;;6242865;28;20045;-76
2022/10/31 12:03:14;;;;;;;16.35;8.00;;;;;;;;;;6243193;28;20027;-75
2022/10/31 12:06:23;;;;;;;18.15;8.63;;;;;;;;;;6245260;28;20389;-75
2022/10/31 12:09:25;;;;;;;19.33;8.50;;;;;;;;;;6264219;28;20124;-75
2022/10/31 12:12:33;;;;;;;17.63;8.90;;;;;;;;;;6260299;28;20434;-75
2022/10/31 12:15:36;;;;;;;23.83;8.75;;;;;;;;;;6252524;28;20029;-75
2022/10/31 12:18:51;;;;;;;20.38;7.60;;;;;;;;;;6246739;28;20414;-75
2022/10/31 12:22:11;;;;;;;20.23;9.32;;;;;;;;;;6235816;28;20028;-75
2022/10/31 12:25:17;;;;;;;20.52;8.77;;;;;;;;;;6247099;28;20072;-74
2022/10/31 12:28:28;;;;;;;16.77;7.80;;;;;;;;;;6248668;28;20465;-76
2022/10/31 12:31:29;;;;;;;;;;;;;;;;;;6268266;28;20031;-78
2022/10/31 12:34:33;;;;;;;17.23;7.82;;;;;;;;;;6250982;28;19909;-77
2022/10/31 12:37:33;;;;;;;14.35;7.18;;;;;;;;;;6252345;28;20123;-76
2022/10/31 12:40:38;;;;;;;21.52;8.07;;;;;;;;;;6245482;28;20029;-77
2022/10/31 12:43:56;;;;;;;18.75;8.70;;;;;;;;;;6248083;28;20028;-76
2022/10/31 12:47:11;;;;;;;21.45;7.55;;;;;;;;;;6236174;28;20022;-76
2022/10/31 12:50:21;;;;;;;18.00;7.00;;;;;;;;;;6235008;28;20021;-76
2022/10/31 12:53:24;;;;;;;20.25;8.38;;;;;;;;;;6240270;28;20071;-73
2022/10/31 12:56:42;;;;;;;14.52;6.90;;;;;;;;;;6234866;28;20136;-73
2022/10/31 12:59:45;;;;;;;19.63;7.47;;;;;;;;;;6232109;28;20103;-75
2022/10/31 13:02:48;;;;;;;21.67;7.60;;;;;;;;;;6234709;28;20017;-75
2022/10/31 13:05:51;;;;;;;13.23;8.00;;;;;;;;;;6234859;28;20493;-75
2022/10/31 13:08:53;;;;;;;18.45;8.00;;;;;;;;;;6235986;28;20433;-75
2022/10/31 13:11:56;;;;;;;17.45;7.90;;;;;;;;;;6240860;28;20147;-75
2022/10/31 13:14:58;;;;;;;14.70;8.30;;;;;;;;;;6230968;28;20449;-75
2022/10/31 13:18:01;;;;;;;19.67;8.00;;;;;;;;;;6247921;28;20432;-75
2022/10/31 13:21:03;;;;;;;16.48;7.38;;;;;;;;;;6233636;28;20024;-75
2022/10/31 13:24:05;;;;;;;17.90;8.05;;;;;;;;;;6233463;28;20032;-75
2022/10/31 13:27:21;;;;;;;17.20;8.35;;;;;;;;;;6229205;28;20101;-75
2022/10/31 13:30:22;;;;;;;18.08;9.25;;;;;;;;;;6229438;28;20049;-76
2022/10/31 13:33:22;;;;;;;;;;;;;;;;;;6245396;28;20453;-75
2022/10/31 13:36:36;;;;;;;19.40;8.27;;;;;;;;;;6235148;28;20366;-76
2022/10/31 13:39:44;;;;;;;17.60;7.30;;;;;;;;;;6227003;28;20026;-75
2022/10/31 13:42:44;;;;;;;21.52;9.18;;;;;;;;;;6242783;28;20029;-75
2022/10/31 13:45:52;;;;;;;20.10;8.70;;;;;;;;;;6245037;28;20017;-76
2022/10/31 13:48:52;;;;;;;22.15;8.82;;;;;;;;;;6242469;28;20097;-75
2022/10/31 13:51:52;;;;;;;20.20;8.47;;;;;;;;;;6246163;28;20429;-76
2022/10/31 13:54:56;;;;;;;21.30;8.53;;;;;;;;;;6246916;28;20006;-75
2022/10/31 13:57:57;;;;;;;13.63;8.10;;;;;;;;;;6246334;28;20402;-76
2022/10/31 14:01:17;;;;;;;18.67;7.80;;;;;;;;;;6249533;28;20025;-76
2022/10/31 14:04:20;;;;;;;24.52;8.98;;;;;;;;;;6251239;28;20060;-75
2022/10/31 14:07:22;;;;;;;17.50;8.65;;;;;;;;;;6241451;28;20540;-76
2022/10/31 14:10:36;;;;;;;18.20;8.75;;;;;;;;;;6251744;28;20018;-75
2022/10/31 14:13:38;;;;;;;19.00;7.15;;;;;;;;;;6251304;28;20156;-75
2022/10/31 14:16:39;;;;;;;19.13;7.78;;;;;;;;;;6250773;28;20021;-75
2022/10/31 14:19:39;;;;;;;18.15;7.88;;;;;;;;;;6250988;28;20029;-75
2022/10/31 14:22:40;;;;;;;16.37;7.73;;;;;;;;;;6258739;28;20085;-75
2022/10/31 14:25:40;;;;;;;18.97;7.90;;;;;;;;;;6241101;28;20022;-75
2022/10/31 14:28:40;;;;;;;17.93;8.00;;;;;;;;;;6239079;28;20271;-75
2022/10/31 14:31:43;;;;;;;19.43;8.37;;;;;;;;;;6253731;28;20044;-74
2022/10/31 14:34:51;;;;;;;16.30;8.98;;;;;;;;;;6263630;28;20084;-75
2022/10/31 14:38:11;;;;;;;20.15;8.15;;;;;;;;;;6256396;28;20026;-75
2022/10/31 14:41:11;;;;;;;21.08;8.95;;;;;;;;;;6247764;28;20018;-75
2022/10/31 14:44:11;;;;;;;19.50;9.13;;;;;;;;;;6246097;28;20018;-75
2022/10/31 14:47:19;;;;;;;18.73;8.52;;;;;;;;;;6257408;28;20013;-75
2022/10/31 14:50:38;;;;;;;20.52;9.60;;;;;;;;;;6270462;28;20040;-76
2022/10/31 14:53:57;;;;;;;20.67;9.20;;;;;;;;;;6255524;28;20461;-76
2022/10/31 14:57:02;;;;;;;22.02;9.98;;;;;;;;;;6245177;28;20029;-76
2022/10/31 15:00:21;;;;;;;20.30;9.90;;;;;;;;;;6255044;28;20068;-75
2022/10/31 15:03:22;;;;;;;23.23;9.88;;;;;;;;;;6244400;28;20075;-75
2022/10/31 15:06:22;;;;;;;20.80;9.77;;;;;;;;;;6245581;28;20025;-75
2022/10/31 15:09:27;;;;;;;22.40;9.23;;;;;;;;;;6250800;28;20489;-75
2022/10/31 15:12:32;;;;;;;18.55;9.57;;;;;;;;;;6244810;28;20052;-75
2022/10/31 15:15:33;;;;;;;23.50;9.50;;;;;;;;;;6252125;28;20053;-75
2022/10/31 15:18:33;;;;;;;19.27;8.32;;;;;;;;;;6241010;28;20045;-75
2022/10/31 15:21:35;;;;;;;17.58;8.25;;;;;;;;;;6237185;28;20427;-75
2022/10/31 15:24:39;;;;;;;20.98;8.55;;;;;;;;;;6243003;28;20018;-75
2022/10/31 15:27:40;;;;;;;16.35;7.80;;;;;;;;;;6248218;28;20811;-76
2022/10/31 15:30:49;;;;;;;19.43;9.03;;;;;;;;;;6250078;28;20026;-75
2022/10/31 15:33:50;;;;;;;16.77;7.20;;;;;;;;;;6255608;28;20136;-75
2022/10/31 15:36:50;;;;;;;16.60;8.35;;;;;;;;;;6241678;28;20025;-76
2022/10/31 15:39:51;;;;;;;20.10;8.63;;;;;;;;;;6243799;28;20029;-76
2022/10/31 15:42:53;;;;;;;23.20;8.30;;;;;;;;;;6251596;28;20028;-75
2022/10/31 15:45:54;;;;;;;18.30;8.60;;;;;;;;;;6245229;28;20098;-75
2022/10/31 15:48:54;;;;;;;20.43;9.10;;;;;;;;;;6245850;28;20036;-75
2022/10/31 15:51:54;;;;;;;22.10;10.40;;;;;;;;;;6252209;28;20021;-76
2022/10/31 15:54:58;;;;;;;20.43;10.50;;;;;;;;;;6258272;28;20021;-76
2022/10/31 15:58:00;;;;;;;20.42;9.93;;;;;;;;;;6233344;28;20042;-75
2022/10/31 16:01:00;;;;;;;;;;;;;;;;;;6238286;28;20021;-74
2022/10/31 16:04:09;;;;;;;25.73;11.02;;;;;;;;;;6242522;28;19921;-75
2022/10/31 16:07:13;;;;;;;25.83;11.20;;;;;;;;;;6252747;28;20537;-74
2022/10/31 16:10:25;;;;;;;26.20;10.70;;;;;;;;;;6238703;28;20030;-75
2022/10/31 16:13:51;;;;;;;26.15;10.05;;;;;;;;;;6232780;28;20112;-75
2022/10/31 16:16:53;;;;;;;21.58;12.15;;;;;;;;;;6243643;28;20021;-75
2022/10/31 16:19:56;;;;;;;22.88;11.38;;;;;;;;;;6243906;28;20028;-75
2022/10/31 16:22:57;;;;;;;25.52;14.35;;;;;;;;;;6237834;28;20100;-75
2022/10/31 16:25:57;;;;;;;25.83;12.40;;;;;;;;;;6234312;28;20079;-75
2022/10/31 16:28:58;;;;;;;25.90;10.83;;;;;;;;;;6225795;28;20029;-75
2022/10/31 16:31:58;;;;;;;19.77;10.87;;;;;;;;;;6231720;28;20029;-75
2022/10/31 16:35:00;;;;;;;21.58;10.90;;;;;;;;;;6239540;28;20029;-75
2022/10/31 16:38:00;;;;;;;26.25;11.77;;;;;;;;;;6226334;28;20029;-75
2022/10/31 16:41:00;;;;;;;22.43;11.23;;;;;;;;;;6244912;28;20025;-75
2022/10/31 16:44:02;;;;;;;24.07;11.70;;;;;;;;;;6257782;28;20020;-75
2022/10/31 16:47:09;;;;;;;24.13;10.73;;;;;;;;;;6250512;28;20018;-75
2022/10/31 16:50:14;;;;;;;26.73;11.65;;;;;;;;;;6238788;28;20515;-75
2022/10/31 16:53:17;;;;;;;32.03;12.93;;;;;;;;;;6234623;28;20047;-75
2022/10/31 16:56:21;;;;;;;25.58;12.45;;;;;;;;;;6247269;28;20393;-75
2022/10/31 16:59:21;;;;;;;43.22;24.63;;;;;;;;;;6241045;28;20045;-75
2022/10/31 17:02:22;;;;;;;47.55;26.55;;;;;;;;;;6241409;28;20496;-75
2022/10/31 17:05:28;;;;;;;48.30;23.27;;;;;;;;;;6242113;28;20012;-75
2022/10/31 17:08:29;;;;;;;40.47;20.98;;;;;;;;;;6234298;28;20017;-75
2022/10/31 17:11:30;;;;;;;36.33;17.67;;;;;;;;;;6237004;28;20028;-75
2022/10/31 17:14:30;;;;;;;46.40;24.70;;;;;;;;;;6232228;28;20414;-75
2022/10/31 17:17:30;;;;;;;42.43;22.63;;;;;;;;;;6234599;28;20021;-75
2022/10/31 17:20:30;;;;;;;51.77;24.03;;;;;;;;;;6251296;28;20013;-75
2022/10/31 17:23:32;;;;;;;42.47;22.80;;;;;;;;;;6233629;28;20095;-75
2022/10/31 17:26:32;;;;;;;43.33;22.50;;;;;;;;;;6239696;28;20100;-75
2022/10/31 17:29:32;;;;;;;42.77;20.07;;;;;;;;;;6239737;28;20026;-75
2022/10/31 17:32:32;;;;;;;41.77;24.03;;;;;;;;;;6235832;28;20470;-75
2022/10/31 17:35:33;;;;;;;61.58;29.48;;;;;;;;;;6233060;28;20071;-75
2022/10/31 17:38:33;;;;;;;53.03;25.83;;;;;;;;;;6235295;28;20071;-75
2022/10/31 17:41:33;;;;;;;75.35;32.15;;;;;;;;;;6248461;28;20032;-75
2022/10/31 17:44:34;;;;;;;64.33;30.87;;;;;;;;;;6241089;28;20837;-75
2022/10/31 17:47:34;;;;;;;63.70;32.83;;;;;;;;;;6239701;28;20474;-75
2022/10/31 17:50:34;;;;;;;48.20;26.00;;;;;;;;;;6234631;28;20064;-75
2022/10/31 17:53:35;;;;;;;47.27;26.00;;;;;;;;;;6234840;28;20017;-76